createdAt,value
2023-02-11T00:00:47.651Z,95.50
2023-02-11T00:03:14.880Z,93.90
2023-02-11T00:05:42.112Z,92.70
2023-02-11T00:08:09.304Z,93.70
2023-02-11T00:10:36.446Z,93.10
2023-02-11T00:27:21.718Z,95.50
2023-02-11T00:29:49.115Z,92.70
2023-02-11T00:32:16.427Z,94.60
2023-02-11T00:34:43.794Z,96.80
2023-02-11T00:37:12.346Z,95.80
2023-02-11T00:39:42.337Z,94.40
2023-02-11T00:42:16.597Z,94.50
2023-02-11T00:44:45.706Z,94.70
2023-02-11T00:47:13.102Z,94.10
2023-02-11T00:49:40.571Z,93.10
2023-02-11T00:52:07.975Z,93.10
2023-02-11T00:54:35.384Z,93.50
2023-02-11T00:57:02.892Z,92.30
2023-02-11T00:59:31.514Z,92.50
2023-02-11T01:01:58.762Z,92.30
2023-02-11T01:04:27.556Z,92.20
2023-02-11T01:06:54.824Z,92.70
2023-02-11T01:09:23.260Z,92.20
2023-02-11T01:11:50.552Z,92.70
2023-02-11T01:14:18.216Z,95.10
2023-02-11T01:16:45.478Z,97.80
2023-02-11T01:19:13.857Z,97.30
2023-02-11T01:21:42.388Z,99.90
2023-02-11T01:24:09.713Z,97.90
2023-02-11T01:26:37.099Z,98.20
2023-02-11T01:29:04.643Z,96.10
2023-02-11T01:31:32.793Z,94.40
2023-02-11T01:34:01.463Z,94.40
2023-02-11T01:36:29.540Z,93.90
2023-02-11T01:38:57.077Z,95.50
2023-02-11T01:41:24.446Z,94.60
2023-02-11T01:43:51.752Z,97.80
2023-02-11T01:46:26.763Z,97.40
2023-02-11T01:49:02.722Z,96.10
2023-02-11T01:51:44.910Z,94.60
2023-02-11T01:54:35.621Z,94.90
2023-02-11T01:57:23.389Z,95.60
2023-02-11T02:00:05.700Z,97.60
2023-02-11T02:02:46.079Z,99.90
2023-02-11T02:05:35.288Z,99.90
2023-02-11T02:08:29.608Z,99.90
2023-02-11T02:11:00.711Z,99.00
2023-02-11T02:13:30.215Z,99.10
2023-02-11T02:16:11.600Z,97.70
2023-02-11T02:19:03.862Z,97.60
2023-02-11T02:21:31.190Z,97.30
2023-02-11T02:24:22.154Z,95.30
2023-02-11T02:27:20.521Z,96.20
2023-02-11T02:30:12.730Z,99.90
2023-02-11T02:32:52.866Z,99.90
2023-02-11T02:35:38.753Z,99.60
2023-02-11T02:38:08.993Z,99.10
2023-02-11T02:40:46.872Z,97.70
2023-02-11T02:43:14.670Z,96.90
2023-02-11T02:45:42.060Z,97.60
2023-02-11T02:48:27.429Z,98.40
2023-02-11T02:51:33.532Z,99.80
2023-02-11T02:54:26.100Z,99.50
2023-02-11T02:57:05.313Z,97.50
2023-02-11T02:59:50.876Z,97.00
2023-02-11T03:02:52.305Z,98.10
2023-02-11T03:05:24.387Z,98.90
2023-02-11T03:08:03.107Z,98.60
2023-02-11T03:10:34.712Z,99.60
2023-02-11T03:13:03.878Z,98.80
2023-02-11T03:15:37.780Z,96.90
2023-02-11T03:18:07.616Z,99.90
2023-02-11T03:20:37.768Z,98.30
2023-02-11T03:23:37.754Z,97.70
2023-02-11T03:26:17.305Z,99.90
2023-02-11T03:29:04.055Z,98.80
2023-02-11T03:31:42.134Z,99.30
2023-02-11T03:34:32.879Z,99.10
2023-02-11T03:37:06.699Z,98.50
2023-02-11T03:39:39.297Z,98.10
2023-02-11T03:42:13.374Z,97.20
2023-02-11T03:44:50.607Z,97.20
2023-02-11T03:47:23.938Z,96.60
2023-02-11T03:49:54.795Z,97.50
2023-02-11T03:52:23.569Z,99.90
2023-02-11T03:54:56.506Z,99.90
2023-02-11T03:57:23.961Z,99.90
2023-02-11T03:59:54.215Z,99.20
2023-02-11T04:02:24.658Z,97.60
2023-02-11T04:04:52.161Z,97.00
2023-02-11T04:07:19.545Z,99.90
2023-02-11T04:09:47.084Z,99.20
2023-02-11T04:12:14.648Z,99.90
2023-02-11T04:14:42.187Z,99.60
2023-02-11T04:17:09.562Z,98.80
2023-02-11T04:19:37.143Z,99.40
2023-02-11T04:22:04.518Z,99.90
2023-02-11T04:24:32.252Z,99.90
2023-02-11T04:26:59.861Z,98.70
2023-02-11T04:29:28.416Z,98.40
2023-02-11T04:31:56.408Z,99.90
2023-02-11T04:34:24.634Z,99.70
2023-02-11T04:36:51.999Z,97.30
2023-02-11T04:39:19.685Z,97.80
2023-02-11T04:41:47.232Z,97.70
2023-02-11T04:44:14.427Z,97.80
2023-02-11T04:46:41.844Z,99.90
2023-02-11T04:49:10.347Z,99.10
2023-02-11T04:51:37.545Z,99.90
2023-02-11T04:54:04.891Z,99.90
2023-02-11T04:56:32.285Z,99.90
2023-02-11T04:58:59.650Z,99.80
2023-02-11T05:01:27.088Z,98.50
2023-02-11T05:03:54.473Z,99.10
2023-02-11T05:06:21.862Z,99.90
2023-02-11T05:08:49.372Z,99.90
2023-02-11T05:11:18.947Z,98.50
2023-02-11T05:13:47.448Z,98.30
2023-02-11T05:16:16.271Z,99.40
2023-02-11T05:18:45.170Z,99.90
2023-02-11T05:21:18.328Z,98.80
2023-02-11T05:23:46.315Z,99.90
2023-02-11T05:26:13.958Z,99.90
2023-02-11T05:28:43.392Z,99.90
2023-02-11T05:31:11.667Z,99.90
2023-02-11T05:33:39.058Z,99.90
2023-02-11T05:36:09.128Z,99.90
2023-02-11T05:38:38.224Z,99.30
2023-02-11T05:41:06.611Z,99.90
2023-02-11T05:43:35.466Z,99.90
2023-02-11T05:46:04.383Z,99.90
2023-02-11T05:48:31.922Z,99.90
2023-02-11T05:50:59.162Z,99.90
2023-02-11T05:53:26.637Z,99.90
2023-02-11T05:55:53.979Z,99.90
2023-02-11T05:58:21.442Z,99.90
2023-02-11T06:00:48.873Z,99.90
2023-02-11T06:03:16.393Z,99.90
2023-02-11T06:05:44.846Z,99.90
2023-02-11T06:08:12.950Z,99.90
2023-02-11T06:10:43.172Z,99.90
2023-02-11T06:13:10.625Z,99.90
2023-02-11T06:15:38.139Z,99.90
2023-02-11T06:18:09.810Z,99.90
2023-02-11T06:20:37.651Z,99.90
2023-02-11T06:23:05.960Z,99.90
2023-02-11T06:25:33.392Z,99.90
2023-02-11T06:28:00.821Z,99.90
2023-02-11T06:30:28.274Z,99.90
2023-02-11T06:32:55.602Z,99.90
2023-02-11T06:35:23.218Z,99.90
2023-02-11T06:37:50.740Z,99.90
2023-02-11T06:40:18.263Z,99.90
2023-02-11T06:42:45.569Z,99.90
2023-02-11T06:45:13.592Z,99.90
2023-02-11T06:47:41.688Z,99.90
2023-02-11T06:50:13.252Z,99.90
2023-02-11T06:52:40.773Z,99.90
2023-02-11T06:55:08.526Z,99.90
2023-02-11T06:57:35.781Z,99.90
2023-02-11T07:00:03.502Z,99.90
2023-02-11T07:02:31.021Z,99.90
2023-02-11T07:04:58.392Z,99.90
2023-02-11T07:07:25.667Z,99.90
2023-02-11T07:09:52.901Z,99.90
2023-02-11T07:12:20.567Z,99.90
2023-02-11T07:14:47.768Z,99.90
2023-02-11T07:17:15.301Z,99.90
2023-02-11T07:19:42.793Z,99.90
2023-02-11T07:22:10.047Z,99.90
2023-02-11T07:24:37.262Z,99.90
2023-02-11T07:27:04.863Z,99.90
2023-02-11T07:29:32.320Z,99.90
2023-02-11T07:31:59.702Z,99.90
2023-02-11T07:34:27.224Z,99.90
2023-02-11T07:36:54.456Z,99.90
2023-02-11T07:39:22.722Z,99.90
2023-02-11T07:41:50.431Z,99.90
2023-02-11T07:44:17.902Z,99.90
2023-02-11T07:46:45.737Z,99.90
2023-02-11T07:49:13.221Z,99.90
2023-02-11T07:51:40.508Z,99.90
2023-02-11T07:54:08.016Z,99.90
2023-02-11T07:56:35.536Z,99.90
2023-02-11T07:59:03.850Z,99.90
2023-02-11T08:01:31.458Z,99.90
2023-02-11T08:04:00.610Z,99.90
2023-02-11T08:06:33.093Z,99.90
2023-02-11T08:09:07.157Z,99.90
2023-02-11T08:11:34.827Z,99.90
2023-02-11T08:14:02.558Z,99.90
2023-02-11T08:16:34.290Z,99.90
2023-02-11T08:19:04.671Z,99.90
2023-02-11T08:21:31.930Z,99.90
2023-02-11T08:23:59.274Z,98.70
2023-02-11T08:26:29.168Z,97.10
2023-02-11T08:28:58.360Z,96.10
2023-02-11T08:31:33.736Z,95.00
2023-02-11T08:34:02.582Z,93.20
2023-02-11T08:36:36.273Z,92.10
2023-02-11T08:39:18.655Z,90.70
2023-02-11T08:41:53.334Z,88.30
2023-02-11T08:44:21.655Z,85.80
2023-02-11T08:46:50.224Z,84.40
2023-02-11T08:49:17.710Z,80.30
2023-02-11T08:51:45.620Z,75.70
2023-02-11T08:54:13.320Z,76.10
2023-02-11T08:56:40.743Z,75.10
2023-02-11T08:59:11.013Z,76.20
2023-02-11T09:01:38.483Z,75.60
2023-02-11T09:04:05.816Z,73.10
2023-02-11T09:06:33.042Z,71.80
2023-02-11T09:09:00.445Z,71.50
2023-02-11T09:11:35.079Z,71.50
2023-02-11T09:14:04.026Z,72.70
2023-02-11T09:16:34.237Z,73.00
2023-02-11T09:19:03.864Z,72.50
2023-02-11T09:21:31.374Z,72.30
2023-02-11T09:23:58.596Z,67.30
2023-02-11T09:26:31.343Z,63.90
2023-02-11T09:28:59.351Z,61.50
2023-02-11T09:31:29.376Z,59.70
2023-02-11T09:33:59.690Z,61.80
2023-02-11T09:36:37.541Z,61.70
2023-02-11T09:39:09.445Z,63.20
2023-02-11T09:42:01.119Z,65.30
2023-02-11T09:44:32.518Z,67.90
2023-02-11T09:47:06.330Z,70.20
2023-02-11T09:49:49.182Z,71.70
2023-02-11T09:52:36.388Z,71.10
2023-02-11T09:55:15.301Z,68.90
2023-02-11T09:57:42.630Z,65.90
2023-02-11T10:00:23.530Z,63.10
2023-02-11T10:03:01.151Z,57.90
2023-02-11T10:05:50.343Z,56.60
2023-02-11T10:08:24.376Z,55.80
2023-02-11T10:11:09.206Z,57.10
2023-02-11T10:14:03.043Z,57.90
2023-02-11T10:16:45.411Z,56.80
2023-02-11T10:19:42.616Z,53.40
2023-02-11T10:22:24.988Z,52.90
2023-02-11T10:24:58.536Z,52.80
2023-02-11T10:27:33.622Z,53.10
2023-02-11T10:30:19.525Z,54.10
2023-02-11T10:32:59.832Z,53.10
2023-02-11T10:35:27.465Z,48.40
2023-02-11T10:37:58.308Z,47.40
2023-02-11T10:40:28.737Z,46.40
2023-02-11T10:42:59.986Z,45.60
2023-02-11T10:45:35.135Z,45.20
2023-02-11T10:48:06.520Z,43.00
2023-02-11T10:50:35.576Z,42.30
2023-02-11T10:53:13.680Z,41.40
2023-02-11T10:55:54.228Z,40.00
2023-02-11T10:58:31.996Z,40.80
2023-02-11T11:01:01.662Z,40.50
2023-02-11T11:03:40.352Z,40.20
2023-02-11T11:06:10.075Z,41.10
2023-02-11T11:08:44.743Z,42.80
2023-02-11T11:11:15.296Z,47.60
2023-02-11T11:13:53.557Z,50.40
2023-02-11T11:16:30.950Z,50.40
2023-02-11T11:19:07.522Z,52.20
2023-02-11T11:21:54.948Z,54.10
2023-02-11T11:24:30.144Z,54.50
2023-02-11T11:27:01.210Z,55.10
2023-02-11T11:29:39.702Z,54.90
2023-02-11T11:32:37.401Z,55.00
2023-02-11T11:35:21.193Z,55.00
2023-02-11T11:37:54.020Z,54.60
2023-02-11T11:40:31.628Z,55.40
2023-02-11T11:43:14.453Z,56.10
2023-02-11T11:46:02.983Z,56.80
2023-02-11T11:48:43.247Z,56.60
2023-02-11T11:51:12.376Z,57.00
2023-02-11T11:53:46.025Z,57.40
2023-02-11T11:56:23.289Z,57.30
2023-02-11T11:58:51.199Z,57.80
2023-02-11T12:01:45.178Z,58.20
2023-02-11T12:04:34.686Z,58.30
2023-02-11T12:07:17.463Z,58.00
2023-02-11T12:10:00.135Z,58.50
2023-02-11T12:12:40.019Z,58.60
2023-02-11T12:15:41.624Z,58.80
2023-02-11T12:18:39.071Z,58.80
2023-02-11T12:21:21.525Z,59.20
2023-02-11T12:24:16.947Z,58.80
2023-02-11T12:26:47.834Z,58.80
2023-02-11T12:29:34.196Z,59.30
2023-02-11T12:32:17.907Z,58.50
2023-02-11T12:35:15.016Z,58.20
2023-02-11T12:38:18.909Z,58.00
2023-02-11T12:41:11.904Z,58.40
2023-02-11T12:43:42.398Z,58.50
2023-02-11T12:46:33.709Z,58.80
2023-02-11T12:49:26.545Z,59.00
2023-02-11T12:52:40.066Z,59.30
2023-02-11T12:55:38.530Z,59.70
2023-02-11T12:58:13.542Z,60.60
2023-02-11T13:00:45.806Z,60.90
2023-02-11T13:03:19.284Z,60.20
2023-02-11T13:05:52.967Z,60.70
2023-02-11T13:08:37.746Z,60.90
2023-02-11T13:11:17.762Z,60.40
2023-02-11T13:14:12.777Z,60.90
2023-02-11T13:16:46.725Z,61.20
2023-02-11T13:19:23.903Z,60.70
2023-02-11T13:22:06.286Z,61.10
2023-02-11T13:25:04.022Z,60.40
2023-02-11T13:27:50.856Z,60.60
2023-02-11T13:30:36.995Z,60.80
2023-02-11T13:33:17.013Z,60.60
2023-02-11T13:35:57.880Z,60.70
2023-02-11T13:38:32.594Z,60.70
2023-02-11T13:41:28.006Z,60.80
2023-02-11T13:44:23.972Z,60.60
2023-02-11T13:46:59.343Z,60.60
2023-02-11T13:49:36.374Z,60.30
2023-02-11T13:52:18.081Z,60.10
2023-02-11T13:54:47.929Z,60.00
2023-02-11T13:57:23.792Z,59.90
2023-02-11T13:59:55.594Z,59.80
2023-02-11T14:02:54.507Z,59.80
2023-02-11T14:05:44.853Z,59.70
2023-02-11T14:08:31.984Z,59.60
2023-02-11T14:11:11.487Z,59.80
2023-02-11T14:13:55.438Z,59.80
2023-02-11T14:16:37.366Z,59.90
2023-02-11T14:19:06.870Z,59.70
2023-02-11T14:21:41.165Z,59.70
2023-02-11T14:24:13.551Z,60.70
2023-02-11T14:26:53.582Z,60.70
2023-02-11T14:29:38.332Z,60.60
2023-02-11T14:32:10.330Z,60.20
2023-02-11T14:34:52.104Z,60.10
2023-02-11T14:37:50.336Z,60.70
2023-02-11T14:40:30.938Z,60.60
2023-02-11T14:43:12.529Z,60.60
2023-02-11T14:45:50.384Z,60.60
2023-02-11T14:48:20.740Z,60.20
2023-02-11T14:50:59.076Z,60.40
2023-02-11T14:53:31.702Z,60.40
2023-02-11T14:55:59.880Z,60.00
2023-02-11T14:58:32.720Z,60.50
2023-02-11T15:01:07.032Z,60.50
2023-02-11T15:03:39.117Z,60.40
2023-02-11T15:06:13.567Z,60.30
2023-02-11T15:08:46.125Z,60.30
2023-02-11T15:11:17.332Z,60.40
2023-02-11T15:13:49.902Z,61.00
2023-02-11T15:16:25.047Z,60.70
2023-02-11T15:18:57.349Z,60.50
2023-02-11T15:21:31.029Z,61.20
2023-02-11T15:24:26.789Z,61.60
2023-02-11T15:27:16.293Z,63.00
2023-02-11T15:29:49.745Z,64.00
2023-02-11T15:32:20.023Z,63.50
2023-02-11T15:34:50.229Z,63.70
2023-02-11T15:37:32.624Z,65.70
2023-02-11T15:40:35.426Z,65.10
2023-02-11T15:43:06.626Z,64.70
2023-02-11T15:45:48.482Z,65.20
2023-02-11T15:48:37.583Z,64.70
2023-02-11T15:51:39.307Z,63.50
2023-02-11T15:54:21.992Z,64.00
2023-02-11T15:56:53.259Z,66.10
2023-02-11T15:59:38.800Z,66.50
2023-02-11T16:02:20.016Z,67.60
2023-02-11T16:04:55.297Z,69.40
2023-02-11T16:07:51.549Z,70.00
2023-02-11T16:10:24.349Z,69.00
2023-02-11T16:13:09.357Z,69.40
2023-02-11T16:16:03.138Z,69.00
2023-02-11T16:18:38.710Z,68.90
2023-02-11T16:21:16.765Z,68.50
2023-02-11T16:23:51.834Z,69.00
2023-02-11T16:26:47.324Z,70.80
2023-02-11T16:29:27.808Z,70.80
2023-02-11T16:32:11.792Z,69.80
2023-02-11T16:34:40.175Z,70.60
2023-02-11T16:37:08.697Z,72.20
2023-02-11T16:39:37.291Z,73.40
2023-02-11T16:42:07.638Z,74.10
2023-02-11T16:44:36.394Z,72.70
2023-02-11T16:47:07.889Z,72.10
2023-02-11T16:49:41.343Z,71.50
2023-02-11T16:52:14.098Z,72.60
2023-02-11T16:54:42.536Z,71.80
2023-02-11T16:57:20.654Z,73.90
2023-02-11T16:59:49.630Z,74.80
2023-02-11T17:02:23.900Z,74.40
2023-02-11T17:04:54.706Z,75.10
2023-02-11T17:07:23.148Z,74.80
2023-02-11T17:09:52.782Z,74.70
2023-02-11T17:12:23.244Z,74.60
2023-02-11T17:14:51.902Z,75.70
2023-02-11T17:17:20.404Z,76.50
2023-02-11T17:19:48.523Z,77.00
2023-02-11T17:22:16.816Z,77.70
2023-02-11T17:24:45.192Z,76.90
2023-02-11T17:27:15.879Z,77.20
2023-02-11T17:29:44.230Z,78.50
2023-02-11T17:32:12.646Z,77.80
2023-02-11T17:34:41.495Z,77.80
2023-02-11T17:37:10.327Z,78.50
2023-02-11T17:39:41.703Z,79.60
2023-02-11T17:42:12.612Z,79.80
2023-02-11T17:44:40.818Z,79.40
2023-02-11T17:47:08.841Z,79.60
2023-02-11T17:49:37.084Z,79.60
2023-02-11T17:52:05.747Z,79.10
2023-02-11T17:54:34.432Z,78.50
2023-02-11T17:57:03.807Z,80.50
2023-02-11T17:59:35.531Z,81.00
2023-02-11T18:02:05.032Z,80.90
2023-02-11T18:04:35.589Z,80.80
2023-02-11T18:07:04.413Z,82.10
2023-02-11T18:09:36.391Z,82.50
2023-02-11T18:12:07.784Z,83.80
2023-02-11T18:14:39.978Z,82.90
2023-02-11T18:17:11.682Z,82.20
2023-02-11T18:19:39.529Z,81.00
2023-02-11T18:22:09.867Z,81.80
2023-02-11T18:24:37.908Z,82.50
2023-02-11T18:27:06.068Z,83.50
2023-02-11T18:29:34.569Z,84.00
2023-02-11T18:32:02.783Z,84.20
2023-02-11T18:34:33.770Z,83.90
2023-02-11T18:37:02.389Z,83.70
2023-02-11T18:39:33.032Z,83.30
2023-02-11T18:42:01.084Z,84.00
2023-02-11T18:44:30.322Z,84.90
2023-02-11T18:46:58.479Z,85.60
2023-02-11T18:49:28.246Z,86.30
2023-02-11T18:51:59.177Z,87.70
2023-02-11T18:54:27.908Z,87.80
2023-02-11T18:56:56.327Z,87.30
2023-02-11T18:59:27.200Z,87.50
2023-02-11T19:01:55.898Z,86.20
2023-02-11T19:04:23.484Z,85.50
2023-02-11T19:09:35.149Z,87.10
2023-02-11T19:12:05.350Z,89.70
2023-02-11T19:14:34.995Z,89.00
2023-02-11T19:17:08.622Z,87.70
2023-02-11T19:19:37.833Z,88.40
2023-02-11T19:22:09.991Z,90.20
2023-02-11T19:24:40.828Z,90.20
2023-02-11T19:27:09.616Z,90.40
2023-02-11T19:29:38.472Z,90.30
2023-02-11T19:32:06.995Z,90.70
2023-02-11T19:34:41.749Z,91.30
2023-02-11T19:37:13.389Z,91.00
2023-02-11T19:39:44.789Z,91.00
2023-02-11T19:42:14.330Z,91.20
2023-02-11T19:44:43.010Z,90.80
2023-02-11T19:47:13.995Z,90.80
2023-02-11T19:49:42.230Z,91.40
2023-02-11T19:52:11.954Z,91.10
2023-02-11T19:54:40.570Z,91.70
2023-02-11T19:57:09.493Z,91.70
2023-02-11T19:59:39.567Z,91.90
2023-02-11T20:02:08.747Z,92.10
2023-02-11T20:04:37.807Z,92.50
2023-02-11T20:07:06.102Z,92.00
2023-02-11T20:09:34.828Z,92.20
2023-02-11T20:12:03.601Z,92.90
2023-02-11T20:14:33.079Z,92.40
2023-02-11T20:17:01.266Z,93.10
2023-02-11T20:19:31.511Z,93.60
2023-02-11T20:22:00.026Z,93.60
2023-02-11T20:24:28.280Z,93.20
2023-02-11T20:26:56.906Z,93.30
2023-02-11T20:29:34.080Z,93.70
2023-02-11T20:32:05.009Z,93.70
2023-02-11T20:34:36.425Z,93.10
2023-02-11T20:37:05.816Z,93.60
2023-02-11T20:39:35.874Z,93.50
2023-02-11T20:42:04.798Z,93.30
2023-02-11T20:44:34.821Z,94.40
2023-02-11T20:47:03.305Z,94.00
2023-02-11T20:49:32.122Z,94.50
2023-02-11T20:52:03.800Z,95.00
2023-02-11T20:54:32.176Z,95.00
2023-02-11T20:57:01.210Z,95.80
2023-02-11T20:59:29.566Z,95.20
2023-02-11T21:01:58.181Z,95.40
2023-02-11T21:04:31.319Z,95.60
2023-02-11T21:07:03.023Z,95.70
2023-02-11T21:09:35.023Z,95.60
2023-02-11T21:12:04.113Z,95.60
2023-02-11T21:14:34.780Z,95.90
2023-02-11T21:17:04.328Z,96.60
2023-02-11T21:19:32.644Z,97.00
2023-02-11T21:22:03.499Z,96.60
2023-02-11T21:24:31.813Z,97.10
2023-02-11T21:27:00.231Z,96.70
2023-02-11T21:29:27.988Z,96.30
2023-02-11T21:31:58.282Z,96.10
2023-02-11T21:34:27.576Z,96.90
2023-02-11T21:36:55.654Z,97.50
2023-02-11T21:39:23.965Z,98.10
2023-02-11T21:41:54.019Z,97.80
2023-02-11T21:44:23.121Z,97.40
2023-02-11T21:46:50.943Z,97.70
2023-02-11T21:49:20.422Z,98.20
2023-02-11T21:51:48.153Z,97.70
2023-02-11T21:54:18.955Z,98.00
2023-02-11T21:56:47.153Z,98.10
2023-02-11T21:59:18.164Z,98.10
2023-02-11T22:01:46.577Z,97.90
2023-02-11T22:04:14.598Z,98.00
2023-02-11T22:06:42.238Z,98.30
2023-02-11T22:09:11.800Z,98.70
2023-02-11T22:11:39.882Z,98.50
2023-02-11T22:14:08.345Z,98.20
2023-02-11T22:16:35.932Z,99.10
2023-02-11T22:19:03.982Z,99.80
2023-02-11T22:21:31.900Z,99.40
2023-02-11T22:23:59.241Z,98.30
2023-02-11T22:26:28.134Z,99.30
2023-02-11T22:28:56.137Z,99.90
2023-02-11T22:31:26.367Z,99.90
2023-02-11T22:33:54.185Z,99.90
2023-02-11T22:36:29.925Z,99.70
2023-02-11T22:39:07.332Z,99.60
2023-02-11T22:41:34.894Z,99.80
2023-02-11T22:44:02.257Z,99.90
2023-02-11T22:46:29.605Z,99.90
2023-02-11T22:48:57.006Z,99.90
2023-02-11T22:51:29.514Z,99.90
2023-02-11T22:53:59.897Z,99.90
2023-02-11T22:56:28.705Z,99.90
2023-02-11T22:59:01.436Z,99.90
2023-02-11T23:01:30.287Z,99.90
2023-02-11T23:04:00.128Z,99.90
2023-02-11T23:06:27.391Z,99.90
2023-02-11T23:08:55.202Z,99.90
2023-02-11T23:11:25.639Z,99.90
2023-02-11T23:13:54.743Z,99.90
2023-02-11T23:16:24.841Z,99.90
2023-02-11T23:18:54.759Z,99.90
2023-02-11T23:21:28.043Z,99.90
2023-02-11T23:24:01.629Z,99.90
2023-02-11T23:26:29.540Z,99.90
2023-02-11T23:28:58.311Z,99.90
2023-02-11T23:31:34.672Z,99.90
2023-02-11T23:34:02.485Z,99.90
2023-02-11T23:36:31.624Z,99.90
2023-02-11T23:38:58.866Z,99.90
2023-02-11T23:41:26.527Z,99.90
2023-02-11T23:43:55.932Z,99.90
2023-02-11T23:46:24.469Z,99.90
2023-02-11T23:48:52.667Z,99.90
2023-02-11T23:51:20.608Z,99.90
2023-02-11T23:53:56.588Z,99.90
2023-02-11T23:56:26.410Z,99.90
2023-02-11T23:58:56.860Z,99.90
